Terminal Aerodrome Forecast
Issued by NWS

Home | Current Version | Previous Version | Graphics & Text | Print | Product List | Glossary Off
Versions: 1 2 3 4 5 6 7 8 9 10 11 12 13 14 15

000
FTUS43 KDDC 090304 AAB
TAFGCK
TAF AMD
KGCK 090304Z 0903/0924 28008KT P6SM SCT110
     FM090600 33013KT P6SM SKC
     FM091500 35015G25KT P6SM SKC
     FM092200 33010KT P6SM SKC=

USA.gov is the U.S. government's official web portal to all federal, state and local government web resources and services.